Aviation Digital Data Service (ADDS)

Output produced by METARs form (0508 UTC 21 January 2019)
found at http://www.aviationweather.gov/metar/data/
 
METAR text: FALA 210500Z 10006KT CAVOK 16/09 Q1027 NOSIG
Conditions at: FALA (LANSERIA (CIV/MI, ZA) observed 0500 UTC 21 January 2019
Temperature: 16.0°C (61°F)
Dewpoint: 9.0°C (48°F) [RH = 63%]
Pressure (altimeter): 30.32 inches Hg (1027.0 mb)
Winds: from the E (100 degrees) at 7 MPH (6 knots; 3.1 m/s)
Visibility: 6 or more miles (10+ km)
Ceiling: ceiling and visibility are OK
Clouds: unknown
Weather: no significant weather observed at this time

METAR text: FALA 210434Z 11003KT 080V150 CAVOK 15/09 Q1027 NOSIG
Conditions at: FALA (LANSERIA (CIV/MI, ZA) observed 0434 UTC 21 January 2019
Temperature: 15.0°C (59°F)
Dewpoint: 9.0°C (48°F) [RH = 67%]
Pressure (altimeter): 30.32 inches Hg (1027.0 mb)
Winds: from the ESE (110 degrees) at 3 MPH (3 knots; 1.5 m/s)
Visibility: 6 or more miles (10+ km)
Ceiling: ceiling and visibility are OK
Clouds: unknown
Weather: no significant weather observed at this time

METAR text: FALA 210400Z 20003KT CAVOK 13/09 Q1027 NOSIG
Conditions at: FALA (LANSERIA (CIV/MI, ZA) observed 0400 UTC 21 January 2019
Temperature: 13.0°C (55°F)
Dewpoint: 9.0°C (48°F) [RH = 77%]
Pressure (altimeter): 30.32 inches Hg (1027.0 mb)
Winds: from the SSW (200 degrees) at 3 MPH (3 knots; 1.5 m/s)
Visibility: 6 or more miles (10+ km)
Ceiling: ceiling and visibility are OK
Clouds: unknown
Weather: no significant weather observed at this time

METAR text: FALA 210300Z VRB02KT CAVOK 13/09 Q1027 NOSIG
Conditions at: FALA (LANSERIA (CIV/MI, ZA) observed 0300 UTC 21 January 2019
Temperature: 13.0°C (55°F)
Dewpoint: 9.0°C (48°F) [RH = 77%]
Pressure (altimeter): 30.32 inches Hg (1027.0 mb)
Winds: variable direction winds at 2 MPH (2 knots; 1.0 m/s)
Visibility: 6 or more miles (10+ km)
Ceiling: ceiling and visibility are OK
Clouds: unknown
Weather: no significant weather observed at this time

METAR text: FALA 210200Z AUTO 12005KT //// // ////// 14/09 Q1027
Conditions at: FALA (LANSERIA (CIV/MI, ZA) observed 0200 UTC 21 January 2019
Temperature: 14.0°C (57°F)
Dewpoint: 9.0°C (48°F) [RH = 72%]
Pressure (altimeter): 30.32 inches Hg (1027.0 mb)
Winds: from the ESE (120 degrees) at 6 MPH (5 knots; 2.6 m/s)
Visibility: missing
Ceiling: unknown
Clouds: missing
Weather: no significant weather observed at this time

METAR text: FALA 210100Z AUTO 09008KT //// // ////// 14/09 Q1027
Conditions at: FALA (LANSERIA (CIV/MI, ZA) observed 0100 UTC 21 January 2019
Temperature: 14.0°C (57°F)
Dewpoint: 9.0°C (48°F) [RH = 72%]
Pressure (altimeter): 30.32 inches Hg (1027.0 mb)
Winds: from the E (90 degrees) at 9 MPH (8 knots; 4.1 m/s)
Visibility: missing
Ceiling: unknown
Clouds: missing
Weather: no significant weather observed at this time

METAR text: FALA 210000Z AUTO VRB02KT //// // ////// 15/10 Q1027
Conditions at: FALA (LANSERIA (CIV/MI, ZA) observed 0000 UTC 21 January 2019
Temperature: 15.0°C (59°F)
Dewpoint: 10.0°C (50°F) [RH = 72%]
Pressure (altimeter): 30.32 inches Hg (1027.0 mb)
Winds: variable direction winds at 2 MPH (2 knots; 1.0 m/s)
Visibility: missing
Ceiling: unknown
Clouds: missing
Weather: no significant weather observed at this time

METAR text: FALA 202300Z AUTO 12003KT 090V190 //// // ////// 16/10 Q1027
Conditions at: FALA (LANSERIA (CIV/MI, ZA) observed 2300 UTC 20 January 2019
Temperature: 16.0°C (61°F)
Dewpoint: 10.0°C (50°F) [RH = 68%]
Pressure (altimeter): 30.32 inches Hg (1027.0 mb)
Winds: from the ESE (120 degrees) at 3 MPH (3 knots; 1.5 m/s)
Visibility: missing
Ceiling: unknown
Clouds: missing
Weather: no significant weather observed at this time

METAR text: FALA 202200Z AUTO 10010KT //// // ////// 17/10 Q1027
Conditions at: FALA (LANSERIA (CIV/MI, ZA) observed 2200 UTC 20 January 2019
Temperature: 17.0°C (63°F)
Dewpoint: 10.0°C (50°F) [RH = 63%]
Pressure (altimeter): 30.32 inches Hg (1027.0 mb)
Winds: from the E (100 degrees) at 12 MPH (10 knots; 5.1 m/s)
Visibility: missing
Ceiling: unknown
Clouds: missing
Weather: no significant weather observed at this time

METAR text: FALA 202100Z AUTO 10012KT //// // ////// 18/10 Q1027
Conditions at: FALA (LANSERIA (CIV/MI, ZA) observed 2100 UTC 20 January 2019
Temperature: 18.0°C (64°F)
Dewpoint: 10.0°C (50°F) [RH = 59%]
Pressure (altimeter): 30.32 inches Hg (1027.0 mb)
Winds: from the E (100 degrees) at 14 MPH (12 knots; 6.2 m/s)
Visibility: missing
Ceiling: unknown
Clouds: missing
Weather: no significant weather observed at this time

METAR text: FALA 202000Z 11007KT CAVOK 19/11 Q1026 NOSIG
Conditions at: FALA (LANSERIA (CIV/MI, ZA) observed 2000 UTC 20 January 2019
Temperature: 19.0°C (66°F)
Dewpoint: 11.0°C (52°F) [RH = 60%]
Pressure (altimeter): 30.30 inches Hg (1026.0 mb)
Winds: from the ESE (110 degrees) at 8 MPH (7 knots; 3.6 m/s)
Visibility: 6 or more miles (10+ km)
Ceiling: ceiling and visibility are OK
Clouds: unknown
Weather: no significant weather observed at this time

METAR text: FALA 201900Z 10008KT CAVOK 20/11 Q1026 NOSIG
Conditions at: FALA (LANSERIA (CIV/MI, ZA) observed 1900 UTC 20 January 2019
Temperature: 20.0°C (68°F)
Dewpoint: 11.0°C (52°F) [RH = 56%]
Pressure (altimeter): 30.30 inches Hg (1026.0 mb)
Winds: from the E (100 degrees) at 9 MPH (8 knots; 4.1 m/s)
Visibility: 6 or more miles (10+ km)
Ceiling: ceiling and visibility are OK
Clouds: unknown
Weather: no significant weather observed at this time

METAR text: FALA 201800Z 09007KT CAVOK 21/11 Q1025 NOSIG
Conditions at: FALA (LANSERIA (CIV/MI, ZA) observed 1800 UTC 20 January 2019
Temperature: 21.0°C (70°F)
Dewpoint: 11.0°C (52°F) [RH = 53%]
Pressure (altimeter): 30.27 inches Hg (1025.0 mb)
Winds: from the E (90 degrees) at 8 MPH (7 knots; 3.6 m/s)
Visibility: 6 or more miles (10+ km)
Ceiling: ceiling and visibility are OK
Clouds: unknown
Weather: no significant weather observed at this time

METAR text: FALA 201700Z 07008KT CAVOK 23/10 Q1024 NOSIG
Conditions at: FALA (LANSERIA (CIV/MI, ZA) observed 1700 UTC 20 January 2019
Temperature: 23.0°C (73°F)
Dewpoint: 10.0°C (50°F) [RH = 44%]
Pressure (altimeter): 30.24 inches Hg (1024.0 mb)
Winds: from the ENE (70 degrees) at 9 MPH (8 knots; 4.1 m/s)
Visibility: 6 or more miles (10+ km)
Ceiling: ceiling and visibility are OK
Clouds: unknown
Weather: no significant weather observed at this time

METAR text: FALA 201600Z 07006KT 030V130 9999 SCT045 25/10 Q1024 NOSIG
Conditions at: FALA (LANSERIA (CIV/MI, ZA) observed 1600 UTC 20 January 2019
Temperature: 25.0°C (77°F)
Dewpoint: 10.0°C (50°F) [RH = 39%]
Pressure (altimeter): 30.24 inches Hg (1024.0 mb)
Winds: from the ENE (70 degrees) at 7 MPH (6 knots; 3.1 m/s)
Visibility: 6 or more miles (10+ km)
Ceiling: at least 12,000 feet AGL
Clouds: scattered clouds at 4500 feet AGL
Weather: no significant weather observed at this time

METAR text: FALA 201500Z 09003KT 030V180 9999 SCT040 25/11 Q1024 NOSIG
Conditions at: FALA (LANSERIA (CIV/MI, ZA) observed 1500 UTC 20 January 2019
Temperature: 25.0°C (77°F)
Dewpoint: 11.0°C (52°F) [RH = 41%]
Pressure (altimeter): 30.24 inches Hg (1024.0 mb)
Winds: from the E (90 degrees) at 3 MPH (3 knots; 1.5 m/s)
Visibility: 6 or more miles (10+ km)
Ceiling: at least 12,000 feet AGL
Clouds: scattered clouds at 4000 feet AGL
Weather: no significant weather observed at this time

METAR text: FALA 201400Z 03006KT 350V060 9999 BKN040 24/12 Q1024 NOSIG
Conditions at: FALA (LANSERIA (CIV/MI, ZA) observed 1400 UTC 20 January 2019
Temperature: 24.0°C (75°F)
Dewpoint: 12.0°C (54°F) [RH = 47%]
Pressure (altimeter): 30.24 inches Hg (1024.0 mb)
Winds: from the NNE (30 degrees) at 7 MPH (6 knots; 3.1 m/s)
Visibility: 6 or more miles (10+ km)
Ceiling: 4000 feet AGL
Clouds: broken clouds at 4000 feet AGL
Weather: no significant weather observed at this time

METAR text: FALA 201300Z VRB04KT 9999 BKN030 25/12 Q1025 NOSIG
Conditions at: FALA (LANSERIA (CIV/MI, ZA) observed 1300 UTC 20 January 2019
Temperature: 25.0°C (77°F)
Dewpoint: 12.0°C (54°F) [RH = 44%]
Pressure (altimeter): 30.27 inches Hg (1025.0 mb)
Winds: variable direction winds at 5 MPH (4 knots; 2.1 m/s)
Visibility: 6 or more miles (10+ km)
Ceiling: 3000 feet AGL
Clouds: broken clouds at 3000 feet AGL
Weather: no significant weather observed at this time

METAR text: FALA 201200Z VRB05KT 9999 BKN030 24/12 Q1026 NOSIG
Conditions at: FALA (LANSERIA (CIV/MI, ZA) observed 1200 UTC 20 January 2019
Temperature: 24.0°C (75°F)
Dewpoint: 12.0°C (54°F) [RH = 47%]
Pressure (altimeter): 30.30 inches Hg (1026.0 mb)
Winds: variable direction winds at 6 MPH (5 knots; 2.6 m/s)
Visibility: 6 or more miles (10+ km)
Ceiling: 3000 feet AGL
Clouds: broken clouds at 3000 feet AGL
Weather: no significant weather observed at this time

METAR text: FALA 201100Z 07006KT 020V190 9999 BKN030 23/13 Q1026 NOSIG
Conditions at: FALA (LANSERIA (CIV/MI, ZA) observed 1100 UTC 20 January 2019
Temperature: 23.0°C (73°F)
Dewpoint: 13.0°C (55°F) [RH = 53%]
Pressure (altimeter): 30.30 inches Hg (1026.0 mb)
Winds: from the ENE (70 degrees) at 7 MPH (6 knots; 3.1 m/s)
Visibility: 6 or more miles (10+ km)
Ceiling: 3000 feet AGL
Clouds: broken clouds at 3000 feet AGL
Weather: no significant weather observed at this time

METAR text: FALA 201000Z 09010KT 050V130 9999 BKN030 21/12 Q1027 NOSIG
Conditions at: FALA (LANSERIA (CIV/MI, ZA) observed 1000 UTC 20 January 2019
Temperature: 21.0°C (70°F)
Dewpoint: 12.0°C (54°F) [RH = 56%]
Pressure (altimeter): 30.32 inches Hg (1027.0 mb)
Winds: from the E (90 degrees) at 12 MPH (10 knots; 5.1 m/s)
Visibility: 6 or more miles (10+ km)
Ceiling: 3000 feet AGL
Clouds: broken clouds at 3000 feet AGL
Weather: no significant weather observed at this time

METAR text: FALA 200900Z 09013KT 9999 BKN025 21/11 Q1027 NOSIG
Conditions at: FALA (LANSERIA (CIV/MI, ZA) observed 0900 UTC 20 January 2019
Temperature: 21.0°C (70°F)
Dewpoint: 11.0°C (52°F) [RH = 53%]
Pressure (altimeter): 30.32 inches Hg (1027.0 mb)
Winds: from the E (90 degrees) at 15 MPH (13 knots; 6.7 m/s)
Visibility: 6 or more miles (10+ km)
Ceiling: 2500 feet AGL
Clouds: broken clouds at 2500 feet AGL
Weather: no significant weather observed at this time

METAR text: FALA 200800Z 09012KT 070V130 9999 BKN020 21/12 Q1027 NOSIG
Conditions at: FALA (LANSERIA (CIV/MI, ZA) observed 0800 UTC 20 January 2019
Temperature: 21.0°C (70°F)
Dewpoint: 12.0°C (54°F) [RH = 56%]
Pressure (altimeter): 30.32 inches Hg (1027.0 mb)
Winds: from the E (90 degrees) at 14 MPH (12 knots; 6.2 m/s)
Visibility: 6 or more miles (10+ km)
Ceiling: 2000 feet AGL
Clouds: broken clouds at 2000 feet AGL
Weather: no significant weather observed at this time

METAR text: FALA 200700Z 10014KT 9999 BKN015 19/11 Q1027 NOSIG
Conditions at: FALA (LANSERIA (CIV/MI, ZA) observed 0700 UTC 20 January 2019
Temperature: 19.0°C (66°F)
Dewpoint: 11.0°C (52°F) [RH = 60%]
Pressure (altimeter): 30.32 inches Hg (1027.0 mb)
Winds: from the E (100 degrees) at 16 MPH (14 knots; 7.2 m/s)
Visibility: 6 or more miles (10+ km)
Ceiling: 1500 feet AGL
Clouds: broken clouds at 1500 feet AGL
Weather: no significant weather observed at this time

METAR text: FALA 200600Z 10014KT 9999 BKN015 19/12 Q1026 NOSIG
Conditions at: FALA (LANSERIA (CIV/MI, ZA) observed 0600 UTC 20 January 2019
Temperature: 19.0°C (66°F)
Dewpoint: 12.0°C (54°F) [RH = 64%]
Pressure (altimeter): 30.30 inches Hg (1026.0 mb)
Winds: from the E (100 degrees) at 16 MPH (14 knots; 7.2 m/s)
Visibility: 6 or more miles (10+ km)
Ceiling: 1500 feet AGL
Clouds: broken clouds at 1500 feet AGL
Weather: no significant weather observed at this time

METAR text: FALA 200500Z 10011KT 9999 SCT015 SCT020 18/12 Q1026 NOSIG
Conditions at: FALA (LANSERIA (CIV/MI, ZA) observed 0500 UTC 20 January 2019
Temperature: 18.0°C (64°F)
Dewpoint: 12.0°C (54°F) [RH = 68%]
Pressure (altimeter): 30.30 inches Hg (1026.0 mb)
Winds: from the E (100 degrees) at 13 MPH (11 knots; 5.7 m/s)
Visibility: 6 or more miles (10+ km)
Ceiling: at least 12,000 feet AGL
Clouds: scattered clouds at 1500 feet AGL
scattered clouds at 2000 feet AGL
Weather: no significant weather observed at this time

METAR text: FALA 200400Z 10010KT 9999 BKN020 17/12 Q1025 NOSIG
Conditions at: FALA (LANSERIA (CIV/MI, ZA) observed 0400 UTC 20 January 2019
Temperature: 17.0°C (63°F)
Dewpoint: 12.0°C (54°F) [RH = 72%]
Pressure (altimeter): 30.27 inches Hg (1025.0 mb)
Winds: from the E (100 degrees) at 12 MPH (10 knots; 5.1 m/s)
Visibility: 6 or more miles (10+ km)
Ceiling: 2000 feet AGL
Clouds: broken clouds at 2000 feet AGL
Weather: no significant weather observed at this time

METAR text: FALA 200200Z AUTO 11014KT //// // ////// 18/12 Q1024
Conditions at: FALA (LANSERIA (CIV/MI, ZA) observed 0200 UTC 20 January 2019
Temperature: 18.0°C (64°F)
Dewpoint: 12.0°C (54°F) [RH = 68%]
Pressure (altimeter): 30.24 inches Hg (1024.0 mb)
Winds: from the ESE (110 degrees) at 16 MPH (14 knots; 7.2 m/s)
Visibility: missing
Ceiling: unknown
Clouds: missing
Weather: no significant weather observed at this time

METAR text: FALA 200100Z AUTO 10014KT //// // ////// 18/12 Q1023
Conditions at: FALA (LANSERIA (CIV/MI, ZA) observed 0100 UTC 20 January 2019
Temperature: 18.0°C (64°F)
Dewpoint: 12.0°C (54°F) [RH = 68%]
Pressure (altimeter): 30.21 inches Hg (1023.0 mb)
Winds: from the E (100 degrees) at 16 MPH (14 knots; 7.2 m/s)
Visibility: missing
Ceiling: unknown
Clouds: missing
Weather: no significant weather observed at this time

METAR text: FALA 200000Z AUTO 10015KT //// // ////// 18/12 Q1024
Conditions at: FALA (LANSERIA (CIV/MI, ZA) observed 0000 UTC 20 January 2019
Temperature: 18.0°C (64°F)
Dewpoint: 12.0°C (54°F) [RH = 68%]
Pressure (altimeter): 30.24 inches Hg (1024.0 mb)
Winds: from the E (100 degrees) at 17 MPH (15 knots; 7.7 m/s)
Visibility: missing
Ceiling: unknown
Clouds: missing
Weather: no significant weather observed at this time

METAR text: FALA 192300Z AUTO 09017KT //// // ////// 18/13 Q1024
Conditions at: FALA (LANSERIA (CIV/MI, ZA) observed 2300 UTC 19 January 2019
Temperature: 18.0°C (64°F)
Dewpoint: 13.0°C (55°F) [RH = 73%]
Pressure (altimeter): 30.24 inches Hg (1024.0 mb)
Winds: from the E (90 degrees) at 20 MPH (17 knots; 8.7 m/s)
Visibility: missing
Ceiling: unknown
Clouds: missing
Weather: no significant weather observed at this time

METAR text: FALA 192200Z AUTO 09017KT //// // ////// 19/14 Q1024
Conditions at: FALA (LANSERIA (CIV/MI, ZA) observed 2200 UTC 19 January 2019
Temperature: 19.0°C (66°F)
Dewpoint: 14.0°C (57°F) [RH = 73%]
Pressure (altimeter): 30.24 inches Hg (1024.0 mb)
Winds: from the E (90 degrees) at 20 MPH (17 knots; 8.7 m/s)
Visibility: missing
Ceiling: unknown
Clouds: missing
Weather: no significant weather observed at this time

METAR text: FALA 192100Z AUTO 10016KT //// // ////// 20/14 Q1023
Conditions at: FALA (LANSERIA (CIV/MI, ZA) observed 2100 UTC 19 January 2019
Temperature: 20.0°C (68°F)
Dewpoint: 14.0°C (57°F) [RH = 68%]
Pressure (altimeter): 30.21 inches Hg (1023.0 mb)
Winds: from the E (100 degrees) at 18 MPH (16 knots; 8.2 m/s)
Visibility: missing
Ceiling: unknown
Clouds: missing
Weather: no significant weather observed at this time

METAR text: FALA 192000Z 07009KT CAVOK 21/16 Q1022 NOSIG
Conditions at: FALA (LANSERIA (CIV/MI, ZA) observed 2000 UTC 19 January 2019
Temperature: 21.0°C (70°F)
Dewpoint: 16.0°C (61°F) [RH = 73%]
Pressure (altimeter): 30.18 inches Hg (1022.0 mb)
Winds: from the ENE (70 degrees) at 10 MPH (9 knots; 4.6 m/s)
Visibility: 6 or more miles (10+ km)
Ceiling: ceiling and visibility are OK
Clouds: unknown
Weather: no significant weather observed at this time

METAR text: FALA 191900Z 09007KT 060V130 CAVOK 21/16 Q1021 NOSIG
Conditions at: FALA (LANSERIA (CIV/MI, ZA) observed 1900 UTC 19 January 2019
Temperature: 21.0°C (70°F)
Dewpoint: 16.0°C (61°F) [RH = 73%]
Pressure (altimeter): 30.15 inches Hg (1021.0 mb)
Winds: from the E (90 degrees) at 8 MPH (7 knots; 3.6 m/s)
Visibility: 6 or more miles (10+ km)
Ceiling: ceiling and visibility are OK
Clouds: unknown
Weather: no significant weather observed at this time

METAR text: FALA 191800Z 09013KT 9999 FEW045 23/15 Q1019 NOSIG
Conditions at: FALA (LANSERIA (CIV/MI, ZA) observed 1800 UTC 19 January 2019
Temperature: 23.0°C (73°F)
Dewpoint: 15.0°C (59°F) [RH = 61%]
Pressure (altimeter): 30.09 inches Hg (1019.0 mb)
Winds: from the E (90 degrees) at 15 MPH (13 knots; 6.7 m/s)
Visibility: 6 or more miles (10+ km)
Ceiling: at least 12,000 feet AGL
Clouds: few clouds at 4500 feet AGL
Weather: no significant weather observed at this time

Forecast for: FALA (LANSERIA (CIV/MI, ZA)
Text: TAF FALA 210400Z 2106/2206 VRB03KT CAVOK TX29/2112Z TN14/2203Z
Forecast period: 0600 UTC 21 January 2019 to 0300 UTC 22 January 2019
Forecast type: FROM: standard forecast or significant change
Winds: variable direction winds at 3 MPH (3 knots; 1.5 m/s)
Visibility: 6 or more miles 10+ km)
Ceiling: unknown
Clouds: missing
Weather: no significant weather forecast for this period
Text: BECMG 2203/2205 30008KT
Forecast period: 0300 to 0600 UTC 22 January 2019
Forecast type: BECOMING: Conditions expected to become as follows by 0500 UTC 22 January 2019
Winds: from the WNW (300 degrees) at 9 MPH (8 knots; 4.1 m/s)
Visibility: 6 or more miles 10+ km)
Ceiling: unknown
Clouds: missing
Weather: no significant weather forecast for this period